Time;durP1;ratioP1;P1;durP2;ratioP2;P2;SDS_P1;SDS_P2;PMS_P1;PMS_P2;Temp;Humidity;BMP_temperature;BMP_pressure;BME280_temperature;BME280_humidity;BME280_pressure;Samples;Min_cycle;Max_cycle;Signal;HPM_P1;HPM_P2
2022/11/27 00:03:36;;;;;;;38.70;21.13;;;;;;;;;;10332514;28;20049;-83
2022/11/27 00:08:36;;;;;;;36.75;20.77;;;;;;;;;;10334157;28;20039;-81
2022/11/27 00:13:37;;;;;;;45.37;21.00;;;;;;;;;;10333128;28;20046;-82
2022/11/27 00:18:37;;;;;;;61.67;20.92;;;;;;;;;;10361168;28;20301;-80
2022/11/27 00:23:38;;;;;;;61.25;21.98;;;;;;;;;;10371146;28;20038;-82
2022/11/27 00:28:38;;;;;;;30.25;16.50;;;;;;;;;;10343845;28;20136;-82
2022/11/27 00:33:39;;;;;;;39.22;16.67;;;;;;;;;;10362085;28;20058;-81
2022/11/27 00:38:39;;;;;;;95.68;20.98;;;;;;;;;;10363258;28;20089;-81
2022/11/27 00:43:43;;;;;;;63.65;20.25;;;;;;;;;;10338964;28;20383;-82
2022/11/27 00:48:44;;;;;;;41.20;17.98;;;;;;;;;;10361307;28;20750;-82
2022/11/27 00:53:47;;;;;;;42.85;17.63;;;;;;;;;;10363046;28;20042;-83
2022/11/27 00:58:48;;;;;;;34.03;16.17;;;;;;;;;;10357584;28;20050;-81
2022/11/27 01:03:49;;;;;;;25.73;14.48;;;;;;;;;;10377511;28;20050;-81
2022/11/27 01:08:49;;;;;;;30.67;14.45;;;;;;;;;;10360475;28;20070;-81
2022/11/27 01:13:49;;;;;;;34.00;17.70;;;;;;;;;;10350262;28;20049;-81
2022/11/27 01:18:53;;;;;;;34.63;16.40;;;;;;;;;;10372853;28;20643;-80
2022/11/27 01:23:53;;;;;;;35.38;16.58;;;;;;;;;;10386074;28;20293;-80
2022/11/27 01:28:54;;;;;;;30.30;14.57;;;;;;;;;;10389746;28;20030;-78
2022/11/27 01:33:57;;;;;;;33.20;16.02;;;;;;;;;;10369622;28;20058;-81
2022/11/27 01:38:59;;;;;;;32.30;16.48;;;;;;;;;;10348598;28;20074;-81
2022/11/27 01:44:01;;;;;;;45.63;18.17;;;;;;;;;;10326032;28;21585;-80
2022/11/27 01:49:07;;;;;;;45.55;17.55;;;;;;;;;;10314191;28;20483;-80
2022/11/27 01:54:09;;;;;;;40.47;17.17;;;;;;;;;;10377307;28;20042;-79
2022/11/27 01:59:10;;;;;;;49.30;19.02;;;;;;;;;;10350472;28;20056;-79
2022/11/27 02:04:10;;;;;;;46.90;18.27;;;;;;;;;;10344381;28;20075;-79
2022/11/27 02:09:11;;;;;;;60.90;18.80;;;;;;;;;;10333958;28;20153;-80
2022/11/27 02:14:33;;;;;;;54.83;19.02;;;;;;;;;;10334221;28;20045;-80
2022/11/27 02:19:52;;;;;;;126.13;22.70;;;;;;;;;;10341512;28;20133;-80
2022/11/27 02:25:02;;;;;;;144.20;24.42;;;;;;;;;;10330615;28;20692;-82
2022/11/27 02:30:03;;;;;;;68.65;18.35;;;;;;;;;;10340720;28;20034;-81
2022/11/27 02:35:12;;;;;;;34.20;14.63;;;;;;;;;;10354685;28;20030;-80
2022/11/27 02:40:17;;;;;;;31.80;15.00;;;;;;;;;;10342585;28;20781;-81
2022/11/27 02:45:20;;;;;;;33.13;14.68;;;;;;;;;;10357253;28;20033;-81
2022/11/27 02:50:22;;;;;;;23.48;13.75;;;;;;;;;;10374429;28;20049;-79
2022/11/27 02:55:25;;;;;;;35.17;16.58;;;;;;;;;;10359077;28;20394;-80
2022/11/27 03:00:25;;;;;;;52.23;18.03;;;;;;;;;;10348925;28;20089;-79
2022/11/27 03:05:27;;;;;;;26.15;13.40;;;;;;;;;;10354017;28;20624;-80
2022/11/27 03:10:30;;;;;;;26.73;12.88;;;;;;;;;;10343040;28;20058;-80
2022/11/27 03:15:40;;;;;;;41.65;13.98;;;;;;;;;;10315918;28;20048;-82
2022/11/27 03:20:42;;;;;;;59.30;15.43;;;;;;;;;;10326491;28;20055;-80
2022/11/27 03:25:42;;;;;;;45.30;16.15;;;;;;;;;;10344514;28;20418;-79
2022/11/27 03:30:43;;;;;;;26.00;13.32;;;;;;;;;;10341525;28;20046;-80
2022/11/27 03:35:43;;;;;;;26.25;14.18;;;;;;;;;;10333367;28;20097;-78
2022/11/27 03:40:49;;;;;;;28.37;14.67;;;;;;;;;;10335724;28;20038;-80
2022/11/27 03:46:09;;;;;;;30.80;15.02;;;;;;;;;;10321036;28;20296;-79
2022/11/27 03:51:19;;;;;;;26.08;13.55;;;;;;;;;;10338440;28;20406;-79
2022/11/27 03:56:40;;;;;;;25.70;14.57;;;;;;;;;;10333658;28;20061;-78
2022/11/27 04:01:41;;;;;;;27.85;14.40;;;;;;;;;;10337346;28;20050;-80
2022/11/27 04:06:41;;;;;;;25.30;13.45;;;;;;;;;;10332296;28;20429;-78
2022/11/27 04:11:42;;;;;;;26.35;13.60;;;;;;;;;;10317395;28;20034;-79
2022/11/27 04:16:42;;;;;;;22.38;12.63;;;;;;;;;;10322177;28;20050;-78
2022/11/27 04:21:44;;;;;;;22.83;13.25;;;;;;;;;;10341325;28;20708;-77
2022/11/27 04:26:44;;;;;;;22.60;13.50;;;;;;;;;;10323915;28;20030;-77
2022/11/27 04:31:45;;;;;;;22.80;12.98;;;;;;;;;;10353566;28;20050;-78
2022/11/27 04:36:45;;;;;;;22.13;13.00;;;;;;;;;;10353808;28;20034;-76
2022/11/27 04:41:45;;;;;;;25.42;14.20;;;;;;;;;;10321277;28;20300;-77
2022/11/27 04:46:46;;;;;;;26.52;13.38;;;;;;;;;;10311110;28;20046;-78
2022/11/27 04:51:46;;;;;;;29.53;13.67;;;;;;;;;;10336345;28;20137;-77
2022/11/27 04:56:47;;;;;;;25.45;13.25;;;;;;;;;;10355763;28;20666;-79
2022/11/27 05:01:47;;;;;;;56.13;14.98;;;;;;;;;;10325260;28;20433;-79
2022/11/27 05:06:48;;;;;;;49.88;15.48;;;;;;;;;;10341264;28;20042;-79
2022/11/27 05:11:48;;;;;;;18.17;10.63;;;;;;;;;;10337918;28;20045;-78
2022/11/27 05:16:50;;;;;;;45.33;13.82;;;;;;;;;;10330792;28;20313;-80
2022/11/27 05:21:51;;;;;;;63.00;14.05;;;;;;;;;;10345721;28;20050;-79
2022/11/27 05:26:51;;;;;;;29.40;12.60;;;;;;;;;;10335948;28;20058;-78
2022/11/27 05:31:53;;;;;;;38.72;14.48;;;;;;;;;;10326351;28;20078;-78
2022/11/27 05:36:53;;;;;;;27.30;12.85;;;;;;;;;;10331635;28;20195;-77
2022/11/27 05:41:54;;;;;;;74.70;15.65;;;;;;;;;;10351516;28;20039;-80
2022/11/27 05:46:57;;;;;;;39.15;12.80;;;;;;;;;;10342897;28;20152;-81
2022/11/27 05:51:57;;;;;;;30.17;11.85;;;;;;;;;;10352127;28;20041;-78
2022/11/27 05:56:58;;;;;;;58.50;15.80;;;;;;;;;;10341983;28;20050;-79
2022/11/27 06:02:00;;;;;;;50.40;15.40;;;;;;;;;;10352955;28;20029;-79
2022/11/27 06:07:01;;;;;;;51.33;14.23;;;;;;;;;;10338891;28;20817;-79
2022/11/27 06:12:01;;;;;;;35.47;12.33;;;;;;;;;;10332683;28;20039;-77
2022/11/27 06:17:01;;;;;;;31.30;10.87;;;;;;;;;;10336106;28;20415;-78
2022/11/27 06:22:02;;;;;;;100.72;16.27;;;;;;;;;;10341052;28;20773;-78
2022/11/27 06:27:02;;;;;;;27.57;11.77;;;;;;;;;;10326287;28;20042;-79
2022/11/27 06:32:06;;;;;;;40.97;13.32;;;;;;;;;;10329008;28;20336;-78
2022/11/27 06:37:07;;;;;;;27.55;12.70;;;;;;;;;;10320428;28;20046;-79
2022/11/27 06:42:07;;;;;;;32.50;13.77;;;;;;;;;;10316414;28;20045;-81
2022/11/27 06:47:08;;;;;;;35.90;12.98;;;;;;;;;;10328841;28;20100;-80
2022/11/27 06:52:10;;;;;;;57.13;13.23;;;;;;;;;;10344234;28;20436;-80
2022/11/27 06:57:12;;;;;;;23.15;12.00;;;;;;;;;;10319441;28;20197;-82
2022/11/27 07:02:15;;;;;;;66.55;14.73;;;;;;;;;;10340964;28;20034;-79
2022/11/27 07:07:15;;;;;;;;;;;;;;;;;;10324817;28;20390;-80
2022/11/27 07:12:16;;;;;;;30.23;11.05;;;;;;;;;;10329371;28;19918;-79
2022/11/27 07:17:17;;;;;;;32.60;12.77;;;;;;;;;;10321398;28;20699;-80
2022/11/27 07:22:18;;;;;;;29.05;12.88;;;;;;;;;;10338731;28;20360;-82
2022/11/27 07:27:18;;;;;;;20.17;10.68;;;;;;;;;;10350438;28;20543;-82
2022/11/27 07:32:19;;;;;;;28.80;13.63;;;;;;;;;;10356004;28;20074;-81
2022/11/27 07:37:19;;;;;;;25.75;14.10;;;;;;;;;;10387375;28;20022;-80
2022/11/27 07:42:20;;;;;;;28.42;14.13;;;;;;;;;;10398104;28;20030;-79
2022/11/27 07:47:21;;;;;;;34.17;14.75;;;;;;;;;;10397325;28;20030;-79
2022/11/27 07:52:22;;;;;;;42.57;15.37;;;;;;;;;;10390179;28;20065;-79
2022/11/27 07:57:22;;;;;;;28.60;13.07;;;;;;;;;;10397075;28;20315;-81
2022/11/27 08:02:25;;;;;;;46.75;13.75;;;;;;;;;;10385831;28;20276;-79
2022/11/27 08:07:31;;;;;;;54.15;16.75;;;;;;;;;;10374024;28;20041;-80
2022/11/27 08:12:32;;;;;;;36.55;13.93;;;;;;;;;;10358277;28;20118;-85
2022/11/27 08:17:32;;;;;;;38.50;15.35;;;;;;;;;;10382666;28;20034;-81
2022/11/27 08:22:34;;;;;;;51.00;15.35;;;;;;;;;;10364400;28;20035;-84
2022/11/27 08:27:35;;;;;;;48.80;16.13;;;;;;;;;;10344567;28;20167;-81
2022/11/27 08:32:38;;;;;;;50.85;15.73;;;;;;;;;;10389630;28;20036;-81
2022/11/27 08:37:39;;;;;;;40.58;14.52;;;;;;;;;;10398569;28;20103;-81
2022/11/27 08:42:39;;;;;;;37.58;14.65;;;;;;;;;;10375426;28;20030;-84
2022/11/27 08:47:42;;;;;;;51.83;17.08;;;;;;;;;;10379493;28;20105;-83
2022/11/27 08:52:42;;;;;;;44.08;16.55;;;;;;;;;;10356323;28;20047;-80
2022/11/27 08:57:42;;;;;;;36.28;15.27;;;;;;;;;;10342353;28;20042;-80
2022/11/27 09:02:43;;;;;;;42.22;15.90;;;;;;;;;;10344452;28;20720;-81
2022/11/27 09:07:43;;;;;;;45.97;13.97;;;;;;;;;;10337848;28;20138;-81
2022/11/27 09:12:43;;;;;;;38.10;14.77;;;;;;;;;;10346847;28;20293;-80
2022/11/27 09:17:44;;;;;;;35.77;13.43;;;;;;;;;;10341621;28;20801;-79
2022/11/27 09:22:44;;;;;;;36.60;13.43;;;;;;;;;;10346029;28;20285;-82
2022/11/27 09:27:45;;;;;;;32.80;12.52;;;;;;;;;;10374117;28;20069;-83
2022/11/27 09:32:48;;;;;;;32.70;11.98;;;;;;;;;;10385933;28;20045;-83
2022/11/27 09:37:48;;;;;;;33.15;13.23;;;;;;;;;;10389760;28;20034;-83
2022/11/27 09:42:52;;;;;;;29.92;10.98;;;;;;;;;;10353298;28;20446;-82
2022/11/27 09:48:00;;;;;;;31.10;14.10;;;;;;;;;;10391838;28;20052;-80
2022/11/27 09:53:05;;;;;;;31.98;13.77;;;;;;;;;;10392172;28;20046;-83
2022/11/27 09:58:12;;;;;;;27.20;12.35;;;;;;;;;;10374982;28;20129;-84
2022/11/27 10:03:13;;;;;;;28.75;12.73;;;;;;;;;;10324830;28;20125;-85
2022/11/27 10:08:21;;;;;;;29.38;12.02;;;;;;;;;;10338693;28;20037;-83
2022/11/27 10:13:40;;;;;;;30.10;12.93;;;;;;;;;;10343012;28;20046;-86
2022/11/27 10:18:45;;;;;;;27.15;12.50;;;;;;;;;;10357147;28;20038;-87
2022/11/27 10:23:52;;;;;;;26.38;11.43;;;;;;;;;;10379811;28;20449;-84
2022/11/27 10:28:53;;;;;;;24.63;12.52;;;;;;;;;;10380780;28;20034;-80
2022/11/27 10:33:55;;;;;;;22.75;11.30;;;;;;;;;;10416811;23;20117;-84
2022/11/27 10:38:56;;;;;;;20.00;11.50;;;;;;;;;;10379432;28;20050;-84
2022/11/27 10:43:59;;;;;;;20.85;10.73;;;;;;;;;;10436880;22;20105;-85
2022/11/27 10:48:59;;;;;;;24.92;13.00;;;;;;;;;;10437746;28;20047;-81
2022/11/27 10:59:28;;;;;;;18.57;9.77;;;;;;;;;;10670304;22;20428;-83
2022/11/27 11:04:31;;;;;;;16.58;9.80;;;;;;;;;;10544611;22;20033;-83
2022/11/27 11:09:33;;;;;;;30.73;16.30;;;;;;;;;;10455847;28;20021;-84
2022/11/27 11:14:33;;;;;;;23.63;12.63;;;;;;;;;;10433388;28;20059;-84
2022/11/27 11:19:36;;;;;;;16.63;9.18;;;;;;;;;;10466371;28;20046;-86
2022/11/27 11:24:38;;;;;;;14.45;8.88;;;;;;;;;;10909391;22;20035;-85
2022/11/27 11:29:43;;;;;;;15.68;9.23;;;;;;;;;;11183071;22;20050;-85
2022/11/27 11:34:51;;;;;;;14.93;8.82;;;;;;;;;;11685304;22;20050;-84
2022/11/27 11:39:56;;;;;;;14.63;8.30;;;;;;;;;;10429947;28;20232;-85
2022/11/27 11:50:39;;;;;;;12.77;7.72;;;;;;;;;;11040089;22;20033;-82
2022/11/27 11:55:44;;;;;;;13.32;7.70;;;;;;;;;;10422165;28;20460;-84
2022/11/27 12:34:30;;;;;;;15.32;9.18;;;;;;;;;;10251505;28;20113;-84
2022/11/27 12:39:42;;;;;;;11.40;7.63;;;;;;;;;;10249467;28;20035;-84
2022/11/27 12:50:18;;;;;;;13.82;8.57;;;;;;;;;;10407795;23;20084;-85
2022/11/27 12:55:24;;;;;;;12.93;7.50;;;;;;;;;;10360833;23;20036;-84
2022/11/27 13:06:01;;;;;;;13.13;7.05;;;;;;;;;;10695456;23;20063;-85
2022/11/27 13:11:12;;;;;;;10.93;7.00;;;;;;;;;;10282792;28;20087;-85
2022/11/27 13:16:25;;;;;;;12.73;7.60;;;;;;;;;;10275323;29;20043;-84
2022/11/27 13:21:30;;;;;;;12.00;8.15;;;;;;;;;;10296448;28;20082;-84
2022/11/27 13:26:43;;;;;;;12.57;7.20;;;;;;;;;;8975192;23;20137;-86
2022/11/27 14:50:29;;;;;;;9.48;6.47;;;;;;;;;;10754595;23;20082;-86
2022/11/27 14:55:29;;;;;;;12.52;8.02;;;;;;;;;;10262280;28;20063;-87
2022/11/27 15:00:31;;;;;;;13.68;8.25;;;;;;;;;;10991185;23;20047;-87
2022/11/27 15:06:01;;;;;;;16.42;8.73;;;;;;;;;;10893864;23;20055;-87
2022/11/27 15:21:50;;;;;;;12.43;7.75;;;;;;;;;;11987352;23;20035;-87
2022/11/27 16:15:37;;;;;;;16.52;8.02;;;;;;;;;;11962897;23;20253;-83
2022/11/27 16:20:38;;;;;;;13.65;7.18;;;;;;;;;;11167205;23;20135;-84
2022/11/27 16:25:39;;;;;;;13.82;7.18;;;;;;;;;;10297927;28;21030;-84
2022/11/27 16:30:39;;;;;;;13.85;7.88;;;;;;;;;;10284354;28;20043;-86
2022/11/27 16:41:21;;;;;;;15.48;8.45;;;;;;;;;;12003037;23;20041;-85
2022/11/27 16:57:10;;;;;;;15.35;8.35;;;;;;;;;;10469940;23;20099;-84
2022/11/27 17:02:10;;;;;;;15.18;8.18;;;;;;;;;;10274821;29;20015;-83
2022/11/27 17:07:11;;;;;;;13.02;8.40;;;;;;;;;;10247571;28;20075;-83
2022/11/27 17:12:19;;;;;;;13.55;7.75;;;;;;;;;;10257127;28;20047;-84
2022/11/27 17:17:20;;;;;;;14.48;7.57;;;;;;;;;;10315312;23;20057;-85
2022/11/27 17:22:21;;;;;;;19.02;10.15;;;;;;;;;;10468670;23;20065;-83
2022/11/27 17:27:21;;;;;;;19.50;11.00;;;;;;;;;;10297258;28;20035;-86
2022/11/27 17:32:23;;;;;;;18.50;10.23;;;;;;;;;;10305402;28;20041;-85
2022/11/27 17:37:31;;;;;;;18.60;9.88;;;;;;;;;;10297431;28;20554;-87
2022/11/27 17:53:28;;;;;;;15.38;8.32;;;;;;;;;;10735380;23;20047;-86
2022/11/27 17:58:28;;;;;;;14.35;8.30;;;;;;;;;;10282880;28;20059;-87
2022/11/27 18:03:30;;;;;;;16.48;8.80;;;;;;;;;;10283727;23;20062;-87
2022/11/27 18:08:31;;;;;;;15.15;8.48;;;;;;;;;;10247541;29;20049;-87
2022/11/27 18:13:32;;;;;;;16.08;8.95;;;;;;;;;;10255280;29;20091;-87
2022/11/27 18:18:34;;;;;;;17.33;10.23;;;;;;;;;;10337368;23;20046;-84
2022/11/27 18:23:40;;;;;;;21.10;11.70;;;;;;;;;;10392523;23;20066;-84
2022/11/27 18:28:41;;;;;;;21.02;11.27;;;;;;;;;;10318557;23;20047;-84
2022/11/27 18:33:42;;;;;;;18.27;10.90;;;;;;;;;;10279795;28;20067;-85
2022/11/27 18:38:50;;;;;;;20.40;10.98;;;;;;;;;;10275998;28;20118;-87
2022/11/27 18:43:52;;;;;;;19.60;10.70;;;;;;;;;;10291017;28;20959;-86
2022/11/27 18:49:09;;;;;;;23.33;12.50;;;;;;;;;;10352318;23;20046;-87
2022/11/27 18:54:10;;;;;;;22.48;12.63;;;;;;;;;;10304205;28;20023;-85
2022/11/27 18:59:10;;;;;;;22.15;11.30;;;;;;;;;;10306694;28;20566;-85
2022/11/27 19:04:14;;;;;;;27.88;15.63;;;;;;;;;;10305051;28;20050;-87
2022/11/27 19:09:14;;;;;;;21.23;12.18;;;;;;;;;;10286659;28;20186;-84
2022/11/27 19:14:16;;;;;;;21.48;10.52;;;;;;;;;;10280709;28;20043;-86
2022/11/27 19:19:18;;;;;;;19.42;11.07;;;;;;;;;;10276630;28;20062;-85
2022/11/27 19:24:19;;;;;;;19.30;10.90;;;;;;;;;;10241089;28;20052;-86
2022/11/27 19:29:25;;;;;;;21.30;10.55;;;;;;;;;;10306017;23;20095;-87
2022/11/27 19:34:26;;;;;;;17.80;10.48;;;;;;;;;;10354631;23;20094;-86
2022/11/27 19:39:27;;;;;;;20.95;10.77;;;;;;;;;;10271179;28;20068;-85
2022/11/27 19:44:28;;;;;;;21.60;10.70;;;;;;;;;;10278729;28;20035;-85
2022/11/27 19:49:28;;;;;;;20.73;10.90;;;;;;;;;;10279822;29;20078;-87
2022/11/27 19:54:28;;;;;;;19.48;10.90;;;;;;;;;;10255598;28;20043;-84
2022/11/27 19:59:30;;;;;;;18.92;10.55;;;;;;;;;;11086043;23;20032;-85
2022/11/27 20:04:31;;;;;;;21.05;10.75;;;;;;;;;;10265870;28;20042;-85
2022/11/27 20:09:32;;;;;;;18.60;9.98;;;;;;;;;;10271353;28;20091;-85
2022/11/27 20:14:32;;;;;;;23.95;11.70;;;;;;;;;;10277903;28;20027;-84
2022/11/27 20:19:34;;;;;;;22.42;10.90;;;;;;;;;;10277427;28;20047;-85
2022/11/27 20:24:35;;;;;;;19.13;10.23;;;;;;;;;;10286319;28;20051;-85
2022/11/27 20:29:36;;;;;;;20.23;10.77;;;;;;;;;;10264985;28;20069;-86
2022/11/27 20:34:38;;;;;;;20.95;10.23;;;;;;;;;;10249245;28;20079;-85
2022/11/27 20:39:39;;;;;;;20.98;10.68;;;;;;;;;;10239936;28;20082;-83
2022/11/27 20:44:39;;;;;;;21.55;10.50;;;;;;;;;;10268929;28;20031;-83
2022/11/27 20:49:43;;;;;;;20.90;11.15;;;;;;;;;;10263145;28;20043;-87
2022/11/27 20:54:44;;;;;;;19.33;10.27;;;;;;;;;;10275550;28;20126;-83
2022/11/27 20:59:45;;;;;;;19.55;10.38;;;;;;;;;;10263804;28;20059;-83
2022/11/27 21:04:47;;;;;;;22.27;10.23;;;;;;;;;;10294593;28;20035;-84
2022/11/27 21:09:47;;;;;;;21.27;10.13;;;;;;;;;;10286577;29;20522;-86
2022/11/27 21:14:47;;;;;;;19.33;10.30;;;;;;;;;;10272406;29;20373;-86
2022/11/27 21:19:48;;;;;;;18.92;10.45;;;;;;;;;;10271867;29;20055;-86
2022/11/27 21:24:49;;;;;;;18.90;10.27;;;;;;;;;;10269015;29;20107;-84
2022/11/27 21:29:50;;;;;;;20.73;10.13;;;;;;;;;;10265266;29;20043;-84
2022/11/27 21:34:50;;;;;;;19.85;9.80;;;;;;;;;;10240565;28;20130;-85
2022/11/27 21:39:51;;;;;;;23.70;12.20;;;;;;;;;;10230016;29;20134;-84
2022/11/27 21:44:51;;;;;;;21.65;11.10;;;;;;;;;;10261175;28;20050;-83
2022/11/27 21:49:53;;;;;;;27.80;11.63;;;;;;;;;;10263069;28;20043;-84
2022/11/27 21:54:53;;;;;;;21.30;11.27;;;;;;;;;;10255341;29;20053;-85
2022/11/27 21:59:54;;;;;;;23.83;11.20;;;;;;;;;;10243840;28;20412;-84
2022/11/27 22:04:54;;;;;;;23.90;11.38;;;;;;;;;;10270786;28;20046;-82
2022/11/27 22:09:55;;;;;;;21.92;10.93;;;;;;;;;;10265333;29;20460;-82
2022/11/27 22:14:56;;;;;;;24.05;11.80;;;;;;;;;;10277417;28;20038;-84
2022/11/27 22:19:56;;;;;;;23.13;11.25;;;;;;;;;;10269598;28;20043;-83
2022/11/27 22:24:57;;;;;;;23.33;11.18;;;;;;;;;;10275989;28;20083;-82
2022/11/27 22:29:58;;;;;;;25.13;11.25;;;;;;;;;;10284806;28;20031;-83
2022/11/27 22:34:58;;;;;;;28.48;13.13;;;;;;;;;;10273307;28;20036;-83
2022/11/27 22:39:59;;;;;;;22.40;11.73;;;;;;;;;;10293454;28;20213;-83
2022/11/27 22:44:59;;;;;;;20.73;11.05;;;;;;;;;;10275463;28;20039;-84
2022/11/27 22:49:59;;;;;;;28.70;12.25;;;;;;;;;;10289900;28;20046;-85
2022/11/27 22:55:00;;;;;;;26.63;12.82;;;;;;;;;;10257420;28;20050;-82
2022/11/27 23:00:03;;;;;;;26.85;13.52;;;;;;;;;;10285422;28;20047;-86
2022/11/27 23:15:50;;;;;;;25.17;12.10;;;;;;;;;;10459943;23;20048;-81
2022/11/27 23:20:58;;;;;;;24.17;12.30;;;;;;;;;;10237440;29;20072;-83
2022/11/27 23:31:44;;;;;;;;;;;;;;;;;;;;;
2022/11/27 23:36:59;;;;;;;24.70;12.32;;;;;;;;;;11228041;23;20065;-84
2022/11/27 23:41:59;;;;;;;27.38;13.00;;;;;;;;;;10796862;23;20035;-86
2022/11/27 23:46:59;;;;;;;25.13;12.90;;;;;;;;;;10458028;23;20110;-89
2022/11/27 23:52:00;;;;;;;25.80;12.88;;;;;;;;;;10690563;23;20554;-89
2022/11/27 23:57:02;;;;;;;28.58;12.65;;;;;;;;;;10800246;23;20036;-89
